createdAt,value
2022-10-01T00:01:22.568Z,2.67
2022-10-01T00:03:50.492Z,2.63
2022-10-01T00:06:20.370Z,4.07
2022-10-01T00:08:50.484Z,6.10
2022-10-01T00:11:20.808Z,3.13
2022-10-01T00:13:49.502Z,2.97
2022-10-01T00:16:21.017Z,3.97
2022-10-01T00:18:50.853Z,6.67
2022-10-01T00:21:20.671Z,3.53
2022-10-01T00:23:49.253Z,2.57
2022-10-01T00:26:20.326Z,5.10
2022-10-01T00:28:50.162Z,4.73
2022-10-01T00:31:18.072Z,2.13
2022-10-01T00:33:45.927Z,2.30
2022-10-01T00:36:15.194Z,4.63
2022-10-01T00:38:43.056Z,2.47
2022-10-01T00:41:11.320Z,3.43
2022-10-01T00:43:44.872Z,3.27
2022-10-01T00:46:21.090Z,2.63
2022-10-01T00:48:58.155Z,2.37
2022-10-01T00:51:34.328Z,2.53
2022-10-01T00:54:09.543Z,3.23
2022-10-01T00:56:38.305Z,2.67
2022-10-01T00:59:06.968Z,3.80
2022-10-01T01:01:38.872Z,3.27
2022-10-01T01:04:16.141Z,3.60
2022-10-01T01:06:47.303Z,3.37
2022-10-01T01:09:15.432Z,4.40
2022-10-01T01:11:53.254Z,2.87
2022-10-01T01:14:26.533Z,4.03
2022-10-01T01:17:01.881Z,3.83
2022-10-01T01:19:44.643Z,6.23
2022-10-01T01:22:16.524Z,2.93
2022-10-01T01:24:52.157Z,2.60
2022-10-01T01:27:28.982Z,3.70
2022-10-01T01:30:04.727Z,2.80
2022-10-01T01:32:41.706Z,5.47
2022-10-01T01:35:12.477Z,4.23
2022-10-01T01:37:58.322Z,4.97
2022-10-01T01:40:27.237Z,3.03
2022-10-01T01:42:57.219Z,4.13
2022-10-01T01:45:30.637Z,3.80
2022-10-01T01:48:02.154Z,3.83
2022-10-01T01:50:34.466Z,2.60
2022-10-01T01:53:02.959Z,2.30
2022-10-01T01:55:32.072Z,2.97
2022-10-01T01:58:00.445Z,4.30
2022-10-01T02:00:29.931Z,2.53
2022-10-01T02:02:59.117Z,2.33
2022-10-01T02:05:31.560Z,2.50
2022-10-01T02:08:15.752Z,3.60
2022-10-01T02:10:58.799Z,2.23
2022-10-01T02:13:38.210Z,2.00
2022-10-01T02:16:18.994Z,3.17
2022-10-01T02:18:54.758Z,2.53
2022-10-01T02:21:29.130Z,3.53
2022-10-01T02:24:01.976Z,4.60
2022-10-01T02:26:32.226Z,2.20
2022-10-01T02:29:08.678Z,2.50
2022-10-01T02:31:38.320Z,3.83
2022-10-01T02:34:12.442Z,2.73
2022-10-01T02:36:42.419Z,3.73
2022-10-01T02:39:11.342Z,3.47
2022-10-01T02:41:39.283Z,3.13
2022-10-01T02:44:11.621Z,3.00
2022-10-01T02:46:46.792Z,2.23
2022-10-01T02:49:15.309Z,2.53
2022-10-01T02:51:53.212Z,2.30
2022-10-01T02:54:28.314Z,2.50
2022-10-01T02:57:14.218Z,2.43
2022-10-01T02:59:42.204Z,2.07
2022-10-01T03:02:11.909Z,2.37
2022-10-01T03:04:39.931Z,3.57
2022-10-01T03:07:07.930Z,3.13
2022-10-01T03:09:36.673Z,2.53
2022-10-01T03:12:06.519Z,2.00
2022-10-01T03:14:34.413Z,4.13
2022-10-01T03:17:02.295Z,2.30
2022-10-01T03:19:31.529Z,4.60
2022-10-01T03:21:59.487Z,2.20
2022-10-01T03:24:27.347Z,2.77
2022-10-01T03:26:55.961Z,2.90
2022-10-01T03:29:24.084Z,2.03
2022-10-01T03:31:52.804Z,2.73
2022-10-01T03:34:21.072Z,1.73
2022-10-01T03:36:51.870Z,1.63
2022-10-01T03:39:19.934Z,1.60
2022-10-01T03:41:47.951Z,2.87
2022-10-01T03:44:15.789Z,1.53
2022-10-01T03:46:43.752Z,2.27
2022-10-01T03:49:11.677Z,2.97
2022-10-01T03:51:40.922Z,2.67
2022-10-01T03:54:11.054Z,3.30
2022-10-01T03:56:40.845Z,1.97
2022-10-01T03:59:08.857Z,2.30
2022-10-01T04:01:37.140Z,2.43
2022-10-01T04:04:05.539Z,3.37
2022-10-01T04:06:33.577Z,1.70
2022-10-01T04:09:01.469Z,2.20
2022-10-01T04:11:31.294Z,0.80
2022-10-01T04:13:59.427Z,2.03
2022-10-01T04:16:27.410Z,2.00
2022-10-01T04:18:55.673Z,0.93
2022-10-01T04:21:23.575Z,0.93
2022-10-01T04:23:51.486Z,0.87
2022-10-01T04:26:19.729Z,2.70
2022-10-01T04:28:49.007Z,0.60
2022-10-01T04:31:26.402Z,0.50
2022-10-01T04:33:55.173Z,0.63
2022-10-01T04:36:24.311Z,2.60
2022-10-01T04:38:56.620Z,2.40
2022-10-01T04:41:27.453Z,0.57
2022-10-01T04:43:59.259Z,1.50
2022-10-01T04:46:27.515Z,2.50
2022-10-01T04:48:55.382Z,1.80
2022-10-01T04:51:23.250Z,0.47
2022-10-01T04:53:51.068Z,0.30
2022-10-01T04:56:18.931Z,0.60
2022-10-01T04:58:46.805Z,1.17
2022-10-01T05:01:16.121Z,0.70
2022-10-01T05:03:44.203Z,0.23
2022-10-01T05:06:12.062Z,0.77
2022-10-01T05:08:39.906Z,0.20
2022-10-01T05:11:07.865Z,0.50
2022-10-01T05:13:35.741Z,0.43
2022-10-01T05:16:03.978Z,0.30
2022-10-01T05:18:33.376Z,0.23
2022-10-01T05:21:06.552Z,0.83
2022-10-01T05:23:34.703Z,1.60
2022-10-01T05:26:05.561Z,0.57
2022-10-01T05:28:34.001Z,1.93
2022-10-01T05:31:02.313Z,0.50
2022-10-01T05:33:30.848Z,1.30
2022-10-01T05:36:00.140Z,0.40
2022-10-01T05:38:28.109Z,1.60
2022-10-01T05:40:55.980Z,0.53
2022-10-01T05:43:25.477Z,3.40
2022-10-01T05:45:53.552Z,0.40
2022-10-01T05:48:21.844Z,0.90
2022-10-01T05:50:49.898Z,0.57
2022-10-01T05:53:19.224Z,0.40
2022-10-01T05:55:47.404Z,0.30
2022-10-01T05:58:15.968Z,0.57
2022-10-01T06:00:44.535Z,0.40
2022-10-01T06:03:13.690Z,0.40
2022-10-01T06:05:41.975Z,0.40
2022-10-01T06:08:10.637Z,0.63
2022-10-01T06:10:40.402Z,0.13
2022-10-01T06:13:08.725Z,0.30
2022-10-01T06:15:38.658Z,0.67
2022-10-01T06:18:08.555Z,0.27
2022-10-01T06:20:37.165Z,0.10
2022-10-01T06:23:07.267Z,2.13
2022-10-01T06:25:37.093Z,0.20
2022-10-01T06:28:08.066Z,0.30
2022-10-01T06:30:38.737Z,0.17
2022-10-01T06:33:08.349Z,0.30
2022-10-01T06:35:40.481Z,0.20
2022-10-01T06:38:09.412Z,0.30
2022-10-01T06:40:37.817Z,0.33
2022-10-01T06:43:08.274Z,0.10
2022-10-01T06:45:39.251Z,0.27
2022-10-01T06:48:07.757Z,0.30
2022-10-01T06:50:36.526Z,0.20
2022-10-01T06:53:04.490Z,0.50
2022-10-01T06:55:34.270Z,0.30
2022-10-01T06:58:03.512Z,1.47
2022-10-01T07:00:35.519Z,0.23
2022-10-01T07:03:04.857Z,0.27
2022-10-01T07:05:32.761Z,0.23
2022-10-01T07:08:00.808Z,0.30
2022-10-01T07:10:28.719Z,0.30
2022-10-01T07:12:56.767Z,1.77
2022-10-01T07:15:25.558Z,1.10
2022-10-01T07:17:54.785Z,0.80
2022-10-01T07:20:22.871Z,2.47
2022-10-01T07:22:50.875Z,0.70
2022-10-01T07:25:18.836Z,0.73
2022-10-01T07:27:46.761Z,0.40
2022-10-01T07:30:14.701Z,0.87
2022-10-01T07:32:45.778Z,0.67
2022-10-01T07:35:16.199Z,0.93
2022-10-01T07:37:44.109Z,1.70
2022-10-01T07:40:12.097Z,0.83
2022-10-01T07:42:41.221Z,0.70
2022-10-01T07:45:10.444Z,7.07
2022-10-01T07:47:38.354Z,1.13
2022-10-01T07:50:07.065Z,1.43
2022-10-01T07:52:36.292Z,0.53
2022-10-01T07:55:05.622Z,2.20
2022-10-01T07:57:34.154Z,4.40
2022-10-01T08:00:02.400Z,0.80
2022-10-01T08:02:30.316Z,0.90
2022-10-01T08:05:15.680Z,1.03
2022-10-01T08:07:44.971Z,2.63
2022-10-01T08:10:12.907Z,0.67
2022-10-01T08:12:42.627Z,0.93
2022-10-01T08:15:11.824Z,0.70
2022-10-01T08:17:40.023Z,0.30
2022-10-01T08:20:10.687Z,0.70
2022-10-01T08:22:42.051Z,0.37
2022-10-01T08:25:11.920Z,0.37
2022-10-01T08:27:39.842Z,0.67
2022-10-01T08:30:09.071Z,1.03
2022-10-01T08:32:37.047Z,0.57
2022-10-01T08:35:05.852Z,3.60
2022-10-01T08:37:33.870Z,0.63
2022-10-01T08:40:02.116Z,1.37
2022-10-01T08:42:45.033Z,0.50
2022-10-01T08:45:17.436Z,0.20
2022-10-01T08:47:53.963Z,0.40
2022-10-01T08:50:32.826Z,1.17
2022-10-01T08:53:03.531Z,0.93
2022-10-01T08:55:36.521Z,0.30
2022-10-01T08:58:08.345Z,0.83
2022-10-01T09:00:43.574Z,0.20
2022-10-01T09:03:14.636Z,0.50
2022-10-01T09:05:52.856Z,0.43
2022-10-01T09:08:43.541Z,1.17
2022-10-01T09:11:21.934Z,0.40
2022-10-01T09:14:11.187Z,0.67
2022-10-01T09:16:48.309Z,1.03
2022-10-01T09:19:31.650Z,2.57
2022-10-01T09:22:03.223Z,2.50
2022-10-01T09:24:43.786Z,0.87
2022-10-01T09:27:15.596Z,1.27
2022-10-01T09:29:49.974Z,4.47
2022-10-01T09:32:21.806Z,3.33
2022-10-01T09:34:50.109Z,0.87
2022-10-01T09:37:26.376Z,1.03
2022-10-01T09:40:08.078Z,1.13
2022-10-01T09:42:36.424Z,2.17
2022-10-01T09:45:07.176Z,0.80
2022-10-01T09:47:35.156Z,3.87
2022-10-01T09:50:06.351Z,2.10
2022-10-01T09:52:37.246Z,2.20
2022-10-01T09:55:10.351Z,4.03
2022-10-01T09:57:42.850Z,3.77
2022-10-01T10:00:17.970Z,2.93
2022-10-01T10:02:49.733Z,3.30
2022-10-01T10:05:19.833Z,1.30
2022-10-01T10:07:51.471Z,2.37
2022-10-01T10:10:25.587Z,2.83
2022-10-01T10:12:57.656Z,2.47
2022-10-01T10:15:27.470Z,0.93
2022-10-01T10:17:57.375Z,1.63
2022-10-01T10:20:30.077Z,4.30
2022-10-01T10:23:08.315Z,3.43
2022-10-01T10:25:36.317Z,3.17
2022-10-01T10:28:05.200Z,3.03
2022-10-01T10:30:40.234Z,3.43
2022-10-01T10:33:08.270Z,3.17
2022-10-01T10:35:37.072Z,6.73
2022-10-01T10:38:05.515Z,5.10
2022-10-01T10:40:43.843Z,3.63
2022-10-01T10:43:22.712Z,4.07
2022-10-01T10:45:56.038Z,3.80
2022-10-01T10:48:31.868Z,4.43
2022-10-01T10:51:01.850Z,5.13
2022-10-01T10:53:33.418Z,6.27
2022-10-01T10:56:03.374Z,3.90
2022-10-01T10:58:33.394Z,3.33
2022-10-01T11:01:09.642Z,6.67
2022-10-01T11:03:43.284Z,3.93
2022-10-01T11:06:13.232Z,5.00
2022-10-01T11:08:41.622Z,5.07
2022-10-01T11:11:24.444Z,2.50
2022-10-01T11:14:04.022Z,3.30
2022-10-01T11:16:54.760Z,3.80
2022-10-01T11:19:48.670Z,6.53
2022-10-01T11:22:33.223Z,3.97
2022-10-01T11:25:17.102Z,6.43
2022-10-01T11:27:53.881Z,7.23
2022-10-01T11:30:24.810Z,3.30
2022-10-01T11:33:03.463Z,3.23
2022-10-01T11:35:49.295Z,7.80
2022-10-01T11:38:51.014Z,4.03
2022-10-01T11:41:28.405Z,7.37
2022-10-01T11:44:00.394Z,7.23
2022-10-01T11:46:43.555Z,4.87
2022-10-01T11:49:29.133Z,7.57
2022-10-01T11:52:07.955Z,6.10
2022-10-01T11:54:39.902Z,5.93
2022-10-01T11:57:32.677Z,3.23
2022-10-01T12:00:06.043Z,2.30
2022-10-01T12:02:41.095Z,3.70
2022-10-01T12:05:17.104Z,3.67
2022-10-01T12:07:49.609Z,2.97
2022-10-01T12:10:30.777Z,2.50
2022-10-01T12:13:07.419Z,2.63
2022-10-01T12:15:41.052Z,4.03
2022-10-01T12:18:17.051Z,2.87
2022-10-01T12:20:49.533Z,3.80
2022-10-01T12:23:21.842Z,2.80
2022-10-01T12:25:58.139Z,4.60
2022-10-01T12:28:34.081Z,6.10
2022-10-01T12:31:08.814Z,3.87
2022-10-01T12:33:51.202Z,3.23
2022-10-01T12:36:27.167Z,3.00
2022-10-01T12:39:07.450Z,4.17
2022-10-01T12:41:48.332Z,3.03
2022-10-01T12:44:38.427Z,1.70
2022-10-01T12:47:23.692Z,2.70
2022-10-01T12:49:57.871Z,3.27
2022-10-01T12:52:38.631Z,5.53
2022-10-01T12:55:20.695Z,2.83
2022-10-01T12:57:57.130Z,3.20
2022-10-01T13:00:27.286Z,3.20
2022-10-01T13:03:15.836Z,3.10
2022-10-01T13:05:57.805Z,3.43
2022-10-01T13:08:45.955Z,4.60
2022-10-01T13:11:27.937Z,4.47
2022-10-01T13:13:57.215Z,3.83
2022-10-01T13:16:32.304Z,2.57
2022-10-01T13:19:07.411Z,5.37
2022-10-01T13:21:52.702Z,5.33
2022-10-01T13:24:29.236Z,3.93
2022-10-01T13:27:02.501Z,3.57
2022-10-01T13:29:42.932Z,4.33
2022-10-01T13:32:31.008Z,7.20
2022-10-01T13:35:00.950Z,7.03
2022-10-01T13:37:38.252Z,3.87
2022-10-01T13:40:27.738Z,7.23
2022-10-01T13:42:58.840Z,5.67
2022-10-01T13:45:42.708Z,6.27
2022-10-01T13:48:17.311Z,3.27
2022-10-01T13:51:02.902Z,4.80
2022-10-01T13:53:33.162Z,4.63
2022-10-01T13:56:02.838Z,3.23
2022-10-01T13:58:37.333Z,2.77
2022-10-01T14:01:12.534Z,3.60
2022-10-01T14:03:52.269Z,4.70
2022-10-01T14:06:25.648Z,6.30
2022-10-01T14:09:01.082Z,3.30
2022-10-01T14:11:51.370Z,5.70
2022-10-01T14:14:41.459Z,4.90
2022-10-01T14:17:11.351Z,5.03
2022-10-01T14:19:46.876Z,3.77
2022-10-01T14:22:32.872Z,6.63
2022-10-01T14:25:25.645Z,6.57
2022-10-01T14:28:11.598Z,7.63
2022-10-01T14:30:50.096Z,3.67
2022-10-01T14:33:36.145Z,3.17
2022-10-01T14:36:10.945Z,3.70
2022-10-01T14:38:38.856Z,4.83
2022-10-01T14:41:07.015Z,6.03
2022-10-01T14:43:40.844Z,6.30
2022-10-01T14:46:15.405Z,5.13
2022-10-01T14:48:43.882Z,4.60
2022-10-01T14:51:24.993Z,4.30
2022-10-01T14:53:55.191Z,5.60
2022-10-01T14:56:24.049Z,4.87
2022-10-01T14:58:57.373Z,7.53
2022-10-01T15:01:26.242Z,8.03
2022-10-01T15:03:55.433Z,7.30
2022-10-01T15:06:26.105Z,5.40
2022-10-01T15:08:56.127Z,3.77
2022-10-01T15:11:26.781Z,4.03
2022-10-01T15:13:58.220Z,6.43
2022-10-01T15:16:28.813Z,5.23
2022-10-01T15:18:59.419Z,6.30
2022-10-01T15:21:31.551Z,6.27
2022-10-01T15:24:01.365Z,6.53
2022-10-01T15:26:29.833Z,5.03
2022-10-01T15:29:07.012Z,6.37
2022-10-01T15:31:35.532Z,5.87
2022-10-01T15:34:04.669Z,3.97
2022-10-01T15:36:33.415Z,7.00
2022-10-01T15:39:03.065Z,6.07
2022-10-01T15:41:33.356Z,2.53
2022-10-01T15:44:06.453Z,5.03
2022-10-01T15:46:36.227Z,6.47
2022-10-01T15:49:18.590Z,5.13
2022-10-01T15:52:07.763Z,7.50
2022-10-01T15:54:36.414Z,4.70
2022-10-01T15:57:06.065Z,5.73
2022-10-01T15:59:36.988Z,6.63
2022-10-01T16:02:10.723Z,5.20
2022-10-01T16:04:39.211Z,4.73
2022-10-01T16:07:07.121Z,4.20
2022-10-01T16:09:35.003Z,3.73
2022-10-01T16:12:06.300Z,3.73
2022-10-01T16:14:37.622Z,4.17
2022-10-01T16:17:30.301Z,7.80
2022-10-01T16:20:00.202Z,5.33
2022-10-01T16:22:31.647Z,7.03
2022-10-01T16:25:01.489Z,7.33
2022-10-01T16:27:32.644Z,3.73
2022-10-01T16:30:07.721Z,6.23
2022-10-01T16:32:37.092Z,7.13
2022-10-01T16:35:20.154Z,4.83
2022-10-01T16:37:50.129Z,5.10
2022-10-01T16:40:18.804Z,6.37
2022-10-01T16:42:48.083Z,6.47
2022-10-01T16:45:19.073Z,4.33
2022-10-01T16:47:47.623Z,7.00
2022-10-01T16:50:18.396Z,6.03
2022-10-01T16:52:46.458Z,5.83
2022-10-01T16:55:20.366Z,5.97
2022-10-01T16:57:48.369Z,5.57
2022-10-01T17:00:18.974Z,4.53
2022-10-01T17:02:46.962Z,5.60
2022-10-01T17:05:19.117Z,5.20
2022-10-01T17:07:47.337Z,5.17
2022-10-01T17:10:16.462Z,7.73
2022-10-01T17:12:47.018Z,7.27
2022-10-01T17:15:19.020Z,5.27
2022-10-01T17:17:47.201Z,9.33
2022-10-01T17:20:15.597Z,9.93
2022-10-01T17:22:43.779Z,5.07
2022-10-01T17:25:16.576Z,4.10
2022-10-01T17:27:44.830Z,7.17
2022-10-01T17:30:13.161Z,6.17
2022-10-01T17:32:43.006Z,9.13
2022-10-01T17:35:13.071Z,3.97
2022-10-01T17:37:41.186Z,6.73
2022-10-01T17:40:11.028Z,7.07
2022-10-01T17:42:39.336Z,8.27
2022-10-01T17:45:09.997Z,7.30
2022-10-01T17:47:38.152Z,7.00
2022-10-01T17:50:08.146Z,7.10
2022-10-01T17:52:36.060Z,7.77
2022-10-01T17:55:03.990Z,6.43
2022-10-01T17:57:31.913Z,5.27
2022-10-01T17:59:59.815Z,5.53
2022-10-01T18:02:41.476Z,5.70
2022-10-01T18:05:14.918Z,11.33
2022-10-01T18:07:43.417Z,15.20
2022-10-01T18:10:13.541Z,6.60
2022-10-01T18:12:41.581Z,7.37
2022-10-01T18:15:10.275Z,6.67
2022-10-01T18:17:43.569Z,12.47
2022-10-01T18:20:20.501Z,9.13
2022-10-01T18:22:48.814Z,13.23
2022-10-01T18:25:18.035Z,8.97
2022-10-01T18:27:46.880Z,8.07
2022-10-01T18:30:14.849Z,9.80
2022-10-01T18:32:46.733Z,12.73
2022-10-01T18:35:21.746Z,10.07
2022-10-01T18:37:53.175Z,8.90
2022-10-01T18:40:22.932Z,9.57
2022-10-01T18:42:56.120Z,6.67
2022-10-01T18:45:38.691Z,8.83
2022-10-01T18:48:20.504Z,7.07
2022-10-01T18:50:59.534Z,6.37
2022-10-01T18:53:46.519Z,6.53
2022-10-01T18:56:26.950Z,7.57
2022-10-01T18:59:13.483Z,4.37
2022-10-01T19:01:50.520Z,6.90
2022-10-01T19:04:44.237Z,5.87
2022-10-01T19:07:29.357Z,8.47
2022-10-01T19:10:07.933Z,3.40
2022-10-01T19:12:46.780Z,5.10
2022-10-01T19:15:21.835Z,6.23
2022-10-01T19:17:55.829Z,6.43
2022-10-01T19:20:46.295Z,8.77
2022-10-01T19:23:41.428Z,8.73
2022-10-01T19:26:16.139Z,8.30
2022-10-01T19:28:56.406Z,7.73
2022-10-01T19:31:33.588Z,7.73
2022-10-01T19:34:07.326Z,6.70
2022-10-01T19:36:39.076Z,8.30
2022-10-01T19:39:16.927Z,9.50
2022-10-01T19:41:51.561Z,5.33
2022-10-01T19:44:25.388Z,7.57
2022-10-01T19:46:56.691Z,4.47
2022-10-01T19:49:32.604Z,9.07
2022-10-01T19:52:02.351Z,5.23
2022-10-01T19:54:33.733Z,6.93
2022-10-01T19:57:06.449Z,8.93
2022-10-01T19:59:34.323Z,7.30
2022-10-01T20:02:14.398Z,8.13
2022-10-01T20:04:51.714Z,9.17
2022-10-01T20:07:26.732Z,7.00
2022-10-01T20:10:05.641Z,7.80
2022-10-01T20:12:44.019Z,9.13
2022-10-01T20:15:22.591Z,12.03
2022-10-01T20:18:03.738Z,9.97
2022-10-01T20:20:38.305Z,12.00
2022-10-01T20:23:25.896Z,10.77
2022-10-01T20:26:04.226Z,11.30
2022-10-01T20:28:38.042Z,7.77
2022-10-01T20:31:16.034Z,9.33
2022-10-01T20:33:52.694Z,7.63
2022-10-01T20:36:27.608Z,8.40
2022-10-01T20:39:04.388Z,7.23
2022-10-01T20:41:42.605Z,7.20
2022-10-01T20:44:14.008Z,7.93
2022-10-01T20:46:44.940Z,9.40
2022-10-01T20:49:23.121Z,7.40
2022-10-01T20:51:59.356Z,8.70
2022-10-01T20:54:33.209Z,6.30
2022-10-01T20:57:09.245Z,5.70
2022-10-01T20:59:41.093Z,5.77
2022-10-01T21:02:25.185Z,9.80
2022-10-01T21:05:01.455Z,8.30
2022-10-01T21:07:36.456Z,7.97
2022-10-01T21:10:15.071Z,8.77
2022-10-01T21:12:53.284Z,7.47
2022-10-01T21:15:25.423Z,7.50
2022-10-01T21:18:04.261Z,8.10
2022-10-01T21:20:50.763Z,8.00
2022-10-01T21:23:40.671Z,9.70
2022-10-01T21:26:16.240Z,9.77
2022-10-01T21:29:24.276Z,7.80
2022-10-01T21:32:05.549Z,7.90
2022-10-01T21:34:46.859Z,5.57
2022-10-01T21:37:17.915Z,8.67
2022-10-01T21:39:56.838Z,5.17
2022-10-01T21:42:31.773Z,7.60
2022-10-01T21:45:25.719Z,8.70
2022-10-01T21:48:08.148Z,4.63
2022-10-01T21:50:49.851Z,7.90
2022-10-01T21:53:40.435Z,7.43
2022-10-01T21:56:25.091Z,10.47
2022-10-01T21:59:06.905Z,6.73
2022-10-01T22:01:50.733Z,9.07
2022-10-01T22:04:25.025Z,4.43
2022-10-01T22:06:57.710Z,6.17
2022-10-01T22:09:35.965Z,7.13
2022-10-01T22:12:07.073Z,8.70
2022-10-01T22:14:35.097Z,8.13
2022-10-01T22:17:10.141Z,9.67
2022-10-01T22:19:41.077Z,6.63
2022-10-01T22:22:12.384Z,8.13
2022-10-01T22:24:44.816Z,8.03
2022-10-01T22:27:18.034Z,8.93
2022-10-01T22:29:51.386Z,5.53
2022-10-01T22:32:25.468Z,7.03
2022-10-01T22:34:58.753Z,8.20
2022-10-01T22:37:32.872Z,10.27
2022-10-01T22:40:08.680Z,15.57
2022-10-01T22:42:41.937Z,10.03
2022-10-01T22:45:15.747Z,10.57
2022-10-01T22:47:58.917Z,7.17
2022-10-01T22:50:41.936Z,8.03
2022-10-01T22:53:33.502Z,10.67
2022-10-01T22:56:01.580Z,8.60
2022-10-01T22:58:48.821Z,10.67
2022-10-01T23:01:25.978Z,11.80
2022-10-01T23:04:07.131Z,11.70
2022-10-01T23:06:42.259Z,10.10
2022-10-01T23:09:16.613Z,7.90
2022-10-01T23:11:54.683Z,8.20
2022-10-01T23:14:51.680Z,12.83
2022-10-01T23:17:23.259Z,9.90
2022-10-01T23:20:04.382Z,12.37
2022-10-01T23:23:01.373Z,10.70
2022-10-01T23:25:43.904Z,8.60
2022-10-01T23:28:20.736Z,11.70
2022-10-01T23:30:58.760Z,13.67
2022-10-01T23:33:47.489Z,10.57
2022-10-01T23:36:29.151Z,13.13
2022-10-01T23:39:32.844Z,14.17
2022-10-01T23:42:06.984Z,14.47
2022-10-01T23:44:39.312Z,13.23
2022-10-01T23:47:14.448Z,10.37
2022-10-01T23:49:52.821Z,15.90
2022-10-01T23:52:29.093Z,12.07
2022-10-01T23:55:23.175Z,10.97
2022-10-01T23:57:58.615Z,15.83
